map of KIYA home
KIYA - Airport
Location
City:  Abbeville, Louisiana, United States
Name:Abbeville Chris Crusta Memorial Airport
ICAO:KIYA
FAA LID:IYA

Details
Type:Airport (Airfield)
Use:Public/Civil
Latitude:2958'33"N (29.975778)
Longitude:9205'03"W (-92.084221)
Datum:WGS 1984
Elevation:15 ft (5 m)
Variation:0.35E (WMM2015 magnetic declination)
-0.11 annual change
Runways:1
Longest:5000 × 75 ft (1524 × 23 m), paved

Time
Time Zone:UTC-6 (DST-5)
Local Time:

Weather
METAR:KIYA 141555Z AUTO 32011KT 7SM OVC019 05/01 A3043 RMK AO2 T00450010

Related Locations
Nearby:
Farthest:CCK: 11082 mi / 17835 km
West Island (Pulau Panjang) [Cocos (Keeling) Islands], CC

Find:

   beyond  
but within

Other Information
Maps:
NOTAMs:
Links:
Sources:

  
  • flag of United States
  • flag of Louisiana
  

Sectional Chart

Flight Planning
at skyvector.com

Satellite Image

Google Maps Satellite view

 

Copyright © 2004-2018 Karl L. Swartz. All rights reserved.
The Great Circle Mapper name and logo are trademarks of the Great Circle Mapper.
All other trademarks mentioned herein belong to their respective owners.
Please see credits for attibutions and further copyright information.

  Follow gcmap on Facebook Follow gcmap on Twitter Follow gcmap on Google+ GCmap on LinkedIn

hCard Microformat

Geo Microformat